Time;durP1;ratioP1;P1;durP2;ratioP2;P2;SDS_P1;SDS_P2;PMS_P1;PMS_P2;Temp;Humidity;BMP_temperature;BMP_pressure;BME280_temperature;BME280_humidity;BME280_pressure;Samples;Min_cycle;Max_cycle;Signal;HPM_P1;HPM_P2
2021/08/14 00:02:04;;;;;;;15.28;7.22;;;;;;;17.14;71.65;100475.63;1718460;82;21276;-82
2021/08/14 00:05:10;;;;;;;17.50;7.42;;;;;;;17.14;71.74;100476.48;1718756;82;21323;-82
2021/08/14 00:08:17;;;;;;;12.45;6.58;;;;;;;17.14;71.77;100482.55;1719139;82;21851;-83
2021/08/14 00:11:24;;;;;;;10.43;6.15;;;;;;;17.14;71.75;100486.69;1718570;81;21216;-83
2021/08/14 00:14:31;;;;;;;17.90;6.80;;;;;;;17.15;71.71;100484.23;1718306;83;21252;-83
2021/08/14 00:17:36;;;;;;;13.10;6.33;;;;;;;17.15;71.62;100484.23;1719815;83;21311;-82
2021/08/14 00:20:42;;;;;;;14.18;6.17;;;;;;;17.16;71.53;100480.41;1719561;83;21930;-79
2021/08/14 00:23:48;;;;;;;12.00;5.65;;;;;;;17.17;71.42;100482.94;1718443;82;21256;-82
2021/08/14 00:26:53;;;;;;;10.53;6.10;;;;;;;17.18;71.26;100481.05;1720753;83;21709;-82
2021/08/14 00:29:59;;;;;;;10.35;5.70;;;;;;;17.20;71.04;100486.66;1718440;83;21193;-83
2021/08/14 00:33:05;;;;;;;19.87;5.92;;;;;;;17.23;70.89;100482.64;1718429;83;21252;-83
2021/08/14 00:36:10;;;;;;;10.58;5.40;;;;;;;17.24;70.75;100487.94;1719412;83;21894;-82
2021/08/14 00:39:17;;;;;;;11.12;6.12;;;;;;;17.26;70.66;100489.09;1718242;82;21770;-82
2021/08/14 00:42:24;;;;;;;14.43;5.78;;;;;;;17.28;70.51;100485.06;1719792;83;21824;-82
2021/08/14 00:45:29;;;;;;;7.50;5.45;;;;;;;17.31;70.36;100483.77;1719750;83;21873;-82
2021/08/14 00:48:35;;;;;;;11.78;5.42;;;;;;;17.34;70.21;100495.78;1720043;83;21367;-82
2021/08/14 00:51:42;;;;;;;12.30;5.70;;;;;;;17.35;70.13;100496.94;1719745;83;21334;-83
2021/08/14 00:54:47;;;;;;;12.58;5.58;;;;;;;17.35;70.09;100496.94;1718292;82;21239;-83
2021/08/14 00:57:53;;;;;;;13.25;5.65;;;;;;;17.38;70.05;100495.67;1718300;83;21239;-82
2021/08/14 01:00:58;;;;;;;14.43;5.67;;;;;;;17.40;70.01;100494.91;1719350;82;21342;-83
2021/08/14 01:04:05;;;;;;;10.28;5.25;;;;;;;17.41;69.99;100499.40;1718982;83;21398;-83
2021/08/14 01:07:10;;;;;;;20.05;5.78;;;;;;;17.40;69.99;100503.20;1717318;82;21224;-82
2021/08/14 01:10:17;;;;;;;20.72;6.08;;;;;;;17.39;70.07;100497.36;1718925;83;21897;-83
2021/08/14 01:13:23;;;;;;;11.38;5.53;;;;;;;17.35;70.21;100498.32;1718316;83;21843;-83
2021/08/14 01:16:29;;;;;;;11.50;5.78;;;;;;;17.32;70.24;100493.78;1719745;83;21319;-83
2021/08/14 01:19:35;;;;;;;15.00;6.17;;;;;;;17.29;70.19;100489.52;1720004;83;21315;-83
2021/08/14 01:22:42;;;;;;;15.58;6.20;;;;;;;17.25;70.30;100488.78;1718517;83;21239;-83
2021/08/14 01:25:49;;;;;;;11.08;5.78;;;;;;;17.20;70.52;100497.72;1719730;83;21840;-83
2021/08/14 01:28:54;;;;;;;12.55;6.35;;;;;;;17.19;70.77;100493.80;1720569;83;21899;-82
2021/08/14 01:32:00;;;;;;;13.10;6.33;;;;;;;17.15;71.02;100489.23;1719694;83;21259;-84
2021/08/14 01:35:07;;;;;;;11.90;6.33;;;;;;;17.14;71.19;100485.31;1718559;83;21318;-83
2021/08/14 01:38:13;;;;;;;13.88;6.92;;;;;;;17.07;71.33;100488.06;1718529;83;22487;-84
2021/08/14 01:41:18;;;;;;;17.65;6.78;;;;;;;16.99;71.64;100482.78;1719749;83;21850;-83
2021/08/14 01:44:25;;;;;;;14.30;6.72;;;;;;;16.91;71.95;100477.47;1718997;83;21228;-83
2021/08/14 01:47:31;;;;;;;13.00;6.90;;;;;;;16.83;72.28;100472.46;1719941;83;21315;-83
2021/08/14 01:50:37;;;;;;;17.95;6.28;;;;;;;16.77;72.54;100468.33;1718328;83;21755;-82
2021/08/14 01:53:43;;;;;;;13.53;6.60;;;;;;;16.72;72.83;100461.22;1718551;83;21902;-82
2021/08/14 01:56:43;;;;;;;12.82;7.00;;;;;;;16.68;73.08;100470.95;1718325;83;21311;-80
2021/08/14 01:59:49;;;;;;;11.75;5.95;;;;;;;16.63;73.34;100463.31;1719946;82;21200;-83
2021/08/14 02:02:57;;;;;;;12.03;5.67;;;;;;;16.59;73.53;100465.63;1719881;83;21938;-83
2021/08/14 02:06:06;;;;;;;14.23;6.35;;;;;;;16.57;73.71;100462.25;1717970;83;21216;-84
2021/08/14 02:09:11;;;;;;;11.45;5.50;;;;;;;16.55;73.85;100464.35;1719813;82;21846;-83
2021/08/14 02:12:17;;;;;;;10.50;6.15;;;;;;;16.53;73.98;100465.11;1719541;83;21315;-82
2021/08/14 02:15:17;;;;;;;17.37;6.58;;;;;;;16.52;74.12;100466.18;1718756;83;21712;-83
2021/08/14 02:18:17;;;;;;;14.25;6.42;;;;;;;16.50;74.28;100462.77;1719715;83;21239;-81
2021/08/14 02:21:22;;;;;;;9.25;6.00;;;;;;;16.46;74.46;100457.34;1719697;83;21895;-82
2021/08/14 02:24:28;;;;;;;15.32;6.45;;;;;;;16.41;74.65;100459.89;1719294;82;21391;-82
2021/08/14 02:27:33;;;;;;;11.97;7.22;;;;;;;16.37;74.95;100462.74;1718558;83;21310;-82
2021/08/14 02:30:39;;;;;;;16.02;7.12;;;;;;;16.31;75.26;100469.11;1719777;83;21311;-83
2021/08/14 02:33:44;;;;;;;16.48;7.35;;;;;;;16.24;75.51;100462.75;1719798;83;21886;-82
2021/08/14 02:36:49;;;;;;;15.58;7.05;;;;;;;16.19;75.81;100461.16;1719792;83;21303;-82
2021/08/14 02:39:55;;;;;;;19.48;7.75;;;;;;;16.14;76.15;100463.66;1718406;82;21770;-82
2021/08/14 02:43:02;;;;;;;16.75;7.42;;;;;;;16.08;76.50;100465.34;1719861;83;21846;-82
2021/08/14 02:46:08;;;;;;;17.48;7.83;;;;;;;16.04;76.84;100458.55;1718398;83;21244;-80
2021/08/14 02:49:13;;;;;;;15.08;7.70;;;;;;;16.01;77.16;100457.60;1719861;83;21498;-80
2021/08/14 02:52:14;;;;;;;15.35;7.62;;;;;;;15.97;77.39;100453.02;1718478;83;21739;-83
2021/08/14 02:55:19;;;;;;;14.85;7.42;;;;;;;15.96;77.64;100458.22;1719107;83;21352;-83
2021/08/14 02:58:27;;;;;;;17.37;6.92;;;;;;;15.94;77.92;100456.72;1719712;83;21236;-82
2021/08/14 03:01:33;;;;;;;14.65;6.80;;;;;;;15.93;78.10;100455.88;1718622;82;21885;-83
2021/08/14 03:04:39;;;;;;;17.52;6.55;;;;;;;15.94;78.25;100463.61;1719625;83;21497;-82
2021/08/14 03:07:43;;;;;;;8.50;5.75;;;;;;;15.94;78.34;100469.98;1718319;83;21651;-82
2021/08/14 03:10:50;;;;;;;10.58;5.67;;;;;;;15.94;78.53;100471.36;1718243;83;21215;-83
2021/08/14 03:13:56;;;;;;;16.07;6.47;;;;;;;15.95;78.66;100470.33;1719681;83;21318;-82
2021/08/14 03:17:02;;;;;;;17.62;6.03;;;;;;;16.02;78.67;100474.47;1718439;82;21192;-82
2021/08/14 03:20:09;;;;;;;8.68;5.55;;;;;;;16.06;78.57;100473.00;1719698;83;21835;-82
2021/08/14 03:23:16;;;;;;;11.90;5.92;;;;;;;16.13;78.42;100467.48;1718407;83;21208;-83
2021/08/14 03:26:23;;;;;;;17.48;6.80;;;;;;;16.23;78.27;100471.56;1718817;83;21350;-82
2021/08/14 03:29:28;;;;;;;8.95;5.62;;;;;;;16.34;78.03;100472.31;1719967;83;21180;-83
2021/08/14 03:32:34;;;;;;;13.60;6.03;;;;;;;16.50;77.63;100476.56;1719799;83;21315;-83
2021/08/14 03:35:41;;;;;;;14.55;6.10;;;;;;;16.63;77.14;100477.11;1720189;83;21323;-83
2021/08/14 03:38:47;;;;;;;15.88;6.42;;;;;;;16.73;76.72;100487.77;1719802;83;21847;-82
2021/08/14 03:41:53;;;;;;;17.10;6.55;;;;;;;16.88;76.49;100487.02;1718928;82;21338;-83
2021/08/14 03:44:58;;;;;;;14.90;6.37;;;;;;;17.01;75.82;100482.02;1719726;83;21315;-82
2021/08/14 03:48:04;;;;;;;15.83;6.50;;;;;;;17.04;75.43;100483.83;1719738;83;21310;-83
2021/08/14 03:51:10;;;;;;;18.62;7.00;;;;;;;17.07;75.45;100482.53;1719825;83;21307;-82
2021/08/14 03:54:15;;;;;;;13.58;6.58;;;;;;;17.15;75.28;100488.37;1718273;83;21839;-82
2021/08/14 03:57:22;;;;;;;13.35;6.72;;;;;;;17.20;75.11;100485.82;1718073;82;21216;-83
2021/08/14 04:00:28;;;;;;;11.90;6.20;;;;;;;17.24;74.94;100482.41;1719390;82;21339;-83
2021/08/14 04:03:34;;;;;;;17.12;6.25;;;;;;;17.32;74.78;100498.77;1719777;83;21330;-83
2021/08/14 04:06:40;;;;;;;14.85;6.92;;;;;;;17.40;74.63;100500.44;1718836;83;21385;-80
2021/08/14 04:09:45;;;;;;;15.68;6.92;;;;;;;17.51;74.36;100499.79;1720786;83;22001;-81
2021/08/14 04:12:50;;;;;;;14.50;6.22;;;;;;;17.67;73.99;100498.98;1725141;82;21223;-83
2021/08/14 04:15:55;;;;;;;14.50;6.05;;;;;;;17.83;73.60;100506.31;1725410;83;21184;-83
2021/08/14 04:19:02;;;;;;;14.60;6.40;;;;;;;17.96;73.13;100497.08;1725533;83;21204;-83
2021/08/14 04:22:08;;;;;;;16.12;6.45;;;;;;;18.06;72.51;100501.60;1725276;83;21204;-82
2021/08/14 04:25:15;;;;;;;19.10;6.80;;;;;;;18.13;72.21;100509.35;1725832;83;21326;-82
2021/08/14 04:28:21;;;;;;;12.95;6.72;;;;;;;18.17;71.79;100508.92;1725847;82;21327;-82
2021/08/14 04:31:27;;;;;;;11.12;5.78;;;;;;;18.17;71.55;100514.45;1725684;83;21319;-82
2021/08/14 04:34:33;;;;;;;15.15;5.72;;;;;;;18.19;71.50;100518.69;1725650;83;21204;-83
2021/08/14 04:37:40;;;;;;;12.58;6.25;;;;;;;18.21;71.26;100514.30;1724388;83;21838;-85
2021/08/14 04:40:45;;;;;;;10.43;5.60;;;;;;;18.23;71.29;100521.87;1724387;83;21295;-83
2021/08/14 04:43:50;;;;;;;11.22;6.05;;;;;;;18.26;71.37;100523.66;1724468;83;21398;-82
2021/08/14 04:46:59;;;;;;;16.20;6.05;;;;;;;18.30;70.98;100525.43;1724935;83;21271;-82
2021/08/14 04:50:04;;;;;;;18.23;6.42;;;;;;;18.34;70.67;100530.30;1725727;83;21188;-83
2021/08/14 04:53:10;;;;;;;20.80;7.22;;;;;;;18.39;70.44;100522.17;1725846;83;21845;-84
2021/08/14 04:56:15;;;;;;;14.07;5.92;;;;;;;18.47;70.12;100532.69;1725670;83;21208;-83
2021/08/14 04:59:20;;;;;;;11.73;6.33;;;;;;;18.51;70.05;100536.18;1724568;83;21450;-84
2021/08/14 05:02:26;;;;;;;12.30;5.60;;;;;;;18.57;69.72;100532.50;1724564;83;21196;-84
2021/08/14 05:05:31;;;;;;;16.57;6.15;;;;;;;18.68;69.68;100538.40;1725873;82;21219;-84
2021/08/14 05:08:37;;;;;;;16.77;6.20;;;;;;;18.78;69.52;100537.42;1725763;83;21263;-82
2021/08/14 05:11:44;;;;;;;18.57;5.62;;;;;;;18.89;69.08;100545.00;1718235;83;21338;-84
2021/08/14 05:14:50;;;;;;;11.10;5.28;;;;;;;18.99;68.73;100545.34;1719899;83;21264;-83
2021/08/14 05:17:56;;;;;;;9.00;5.15;;;;;;;19.09;68.35;100547.06;1718901;83;21322;-85
2021/08/14 05:21:02;;;;;;;14.13;5.58;;;;;;;19.18;68.11;100549.55;1718496;83;21545;-84
2021/08/14 05:24:09;;;;;;;13.55;6.28;;;;;;;19.28;68.00;100548.50;1719657;83;21775;-83
2021/08/14 05:27:14;;;;;;;12.33;5.78;;;;;;;19.41;67.58;100550.61;1719552;83;21395;-84
2021/08/14 05:30:21;;;;;;;21.93;5.55;;;;;;;19.55;67.34;100544.92;1718402;83;21371;-84
2021/08/14 05:33:27;;;;;;;13.48;5.37;;;;;;;19.70;66.71;100549.59;1719851;83;21347;-84
2021/08/14 05:36:33;;;;;;;13.70;6.05;;;;;;;19.77;66.42;100544.83;1719748;83;21358;-82
2021/08/14 05:39:39;;;;;;;15.20;4.85;;;;;;;19.84;66.09;100543.35;1719747;83;21310;-83
2021/08/14 05:42:45;;;;;;;9.20;4.92;;;;;;;19.96;66.07;100557.32;1719685;82;21331;-81
2021/08/14 05:45:52;;;;;;;14.45;5.35;;;;;;;20.13;65.35;100552.81;1719837;83;21886;-84
2021/08/14 05:48:58;;;;;;;15.40;5.10;;;;;;;20.24;64.79;100562.31;1718507;83;21339;-84
2021/08/14 05:52:05;;;;;;;10.90;4.92;;;;;;;20.33;64.54;100560.36;1719898;83;21314;-84
2021/08/14 05:55:11;;;;;;;10.65;4.10;;;;;;;20.45;63.83;100556.23;1718587;83;21216;-82
2021/08/14 05:58:17;;;;;;;15.83;5.92;;;;;;;20.58;63.56;100557.47;1718809;82;21374;-83
2021/08/14 06:01:23;;;;;;;10.48;4.83;;;;;;;20.71;64.01;100561.14;1718783;82;21279;-83
2021/08/14 06:04:31;;;;;;;12.93;5.12;;;;;;;20.92;63.50;100565.59;1718606;83;21208;-83
2021/08/14 06:07:38;;;;;;;19.55;5.28;;;;;;;21.18;63.28;100560.15;1718587;83;21672;-83
2021/08/14 06:10:44;;;;;;;9.50;5.45;;;;;;;21.48;61.31;100562.55;1718391;83;21580;-82
2021/08/14 06:13:50;;;;;;;17.32;5.20;;;;;;;21.71;60.42;100557.52;1731954;80;21212;-84
2021/08/14 06:16:57;;;;;;;15.78;5.00;;;;;;;21.82;59.57;100556.09;1747942;80;21325;-84
2021/08/14 06:20:03;;;;;;;14.78;6.03;;;;;;;21.87;58.88;100552.58;1708126;82;21897;-84
2021/08/14 06:23:08;;;;;;;20.10;5.60;;;;;;;21.91;58.97;100559.36;1709971;82;21339;-84
2021/08/14 06:26:14;;;;;;;11.20;5.03;;;;;;;21.99;58.97;100553.97;1709774;83;21302;-84
2021/08/14 06:29:19;;;;;;;8.25;5.28;;;;;;;22.04;58.25;100547.95;1715393;82;21196;-83
2021/08/14 06:32:24;;;;;;;12.30;5.53;;;;;;;22.07;58.56;100541.05;1728424;81;21264;-83
2021/08/14 06:35:30;;;;;;;11.38;5.35;;;;;;;22.11;58.08;100538.05;1730424;81;21292;-83
2021/08/14 06:38:36;;;;;;;13.65;5.62;;;;;;;22.14;58.16;100552.37;1711679;83;21347;-83
2021/08/14 06:41:43;;;;;;;14.80;5.70;;;;;;;22.18;57.62;100554.97;1720311;83;21232;-83
2021/08/14 06:44:48;;;;;;;11.48;5.45;;;;;;;22.24;58.18;100550.34;1697173;84;21196;-83
2021/08/14 06:47:53;;;;;;;14.58;5.65;;;;;;;22.32;57.09;100556.08;1710202;82;21256;-83
2021/08/14 06:50:58;;;;;;;16.50;6.37;;;;;;;22.46;56.56;100551.91;1704597;83;21283;-84
2021/08/14 06:54:05;;;;;;;15.05;7.20;;;;;;;22.62;55.58;100552.48;1714243;82;21332;-83
2021/08/14 06:57:11;;;;;;;17.95;7.40;;;;;;;22.77;55.80;100546.33;1715575;83;21817;-83
2021/08/14 07:00:17;;;;;;;13.83;7.50;;;;;;;22.95;55.15;100543.34;1706712;83;21178;-82
2021/08/14 07:03:23;;;;;;;17.55;7.20;;;;;;;23.12;54.65;100553.13;1705930;83;21288;-82
2021/08/14 07:06:32;;;;;;;18.02;8.18;;;;;;;23.27;53.29;100547.51;1710262;83;21246;-83
2021/08/14 07:09:38;;;;;;;9.85;5.70;;;;;;;23.46;53.15;100550.32;1689451;83;21430;-83
2021/08/14 07:12:44;;;;;;;16.85;6.55;;;;;;;23.62;51.39;100563.42;1706701;82;21296;-84
2021/08/14 07:15:50;;;;;;;11.43;6.28;;;;;;;23.64;51.11;100552.86;1715096;83;21378;-82
2021/08/14 07:18:56;;;;;;;12.10;6.87;;;;;;;23.72;51.45;100554.38;1706739;82;21153;-83
2021/08/14 07:22:02;;;;;;;22.22;6.53;;;;;;;23.81;50.58;100551.44;1704327;83;21578;-83
2021/08/14 07:25:08;;;;;;;14.58;6.55;;;;;;;23.90;49.76;100556.00;1713410;83;22415;-83
2021/08/14 07:28:14;;;;;;;14.55;7.10;;;;;;;24.01;50.20;100545.28;1714319;83;21296;-82
2021/08/14 07:31:19;;;;;;;15.70;7.53;;;;;;;24.10;49.40;100554.90;1715153;83;21705;-82
2021/08/14 07:34:25;;;;;;;10.90;5.67;;;;;;;24.16;49.57;100546.86;1714582;83;21183;-81
2021/08/14 07:37:31;;;;;;;10.48;6.25;;;;;;;24.21;50.23;100544.12;1695183;83;21214;-82
2021/08/14 07:40:37;;;;;;;11.85;6.15;;;;;;;24.36;48.90;100544.89;1749802;81;21335;-82
2021/08/14 07:43:43;;;;;;;12.03;5.40;;;;;;;24.46;47.57;100558.13;1749195;81;21732;-83
2021/08/14 07:46:49;;;;;;;7.17;5.33;;;;;;;24.41;47.89;100532.36;1756892;81;21177;-82
2021/08/14 07:49:55;;;;;;;17.32;5.87;;;;;;;24.45;48.38;100532.13;1751542;81;21699;-83
2021/08/14 07:53:02;;;;;;;11.65;5.67;;;;;;;24.58;47.62;100535.63;1737269;82;21164;-82
2021/08/14 07:56:08;;;;;;;10.45;5.37;;;;;;;24.67;47.31;100525.11;1755064;81;21295;-82
2021/08/14 07:59:14;;;;;;;8.70;4.20;;;;;;;24.75;46.54;100533.58;1753751;81;21157;-83
2021/08/14 08:02:20;;;;;;;11.83;4.35;;;;;;;24.72;45.96;100532.14;1753938;81;21192;-81
2021/08/14 08:05:26;;;;;;;8.90;4.37;;;;;;;24.68;46.59;100533.78;1752040;81;21889;-82
2021/08/14 08:08:30;;;;;;;10.80;4.37;;;;;;;24.72;45.97;100534.09;1751190;81;21244;-82
2021/08/14 08:11:36;;;;;;;7.33;4.40;;;;;;;24.70;46.12;100541.37;1740644;82;21275;-82
2021/08/14 08:14:42;;;;;;;14.25;5.10;;;;;;;24.62;47.00;100516.66;1747750;81;21315;-82
2021/08/14 08:17:48;;;;;;;7.42;4.83;;;;;;;24.65;46.62;100531.50;1756624;81;21296;-82
2021/08/14 08:20:53;;;;;;;9.23;5.15;;;;;;;24.68;46.62;100508.61;1753596;81;21775;-83
2021/08/14 08:23:59;;;;;;;13.78;5.30;;;;;;;24.69;46.59;100522.88;1747483;81;21295;-83
2021/08/14 08:27:06;;;;;;;13.28;4.45;;;;;;;24.67;47.17;100518.67;1754699;81;21295;-82
2021/08/14 08:30:13;;;;;;;9.73;5.30;;;;;;;24.75;45.90;100525.19;1750641;81;21300;-83
2021/08/14 08:33:19;;;;;;;11.50;4.70;;;;;;;24.83;44.41;100520.48;1755566;81;21704;-83
2021/08/14 08:36:25;;;;;;;13.65;5.00;;;;;;;24.80;44.63;100507.61;1753158;81;21864;-82
2021/08/14 08:39:32;;;;;;;19.60;5.53;;;;;;;24.70;44.61;100506.93;1753717;81;21162;-83
2021/08/14 08:42:38;;;;;;;16.17;4.80;;;;;;;24.63;45.32;100504.36;1747107;81;21295;-83
2021/08/14 08:45:44;;;;;;;10.18;4.12;;;;;;;24.68;45.22;100519.80;1744909;81;21835;-83
2021/08/14 08:48:51;;;;;;;12.93;4.40;;;;;;;24.65;45.49;100507.72;1743106;81;21565;-82
2021/08/14 08:51:58;;;;;;;12.10;4.10;;;;;;;24.63;45.22;100507.72;1740887;81;21827;-81
2021/08/14 08:55:03;;;;;;;10.35;5.05;;;;;;;24.67;45.33;100513.08;1753477;81;21259;-82
2021/08/14 08:58:09;;;;;;;15.28;3.95;;;;;;;24.73;45.20;100531.03;1750148;81;21236;-83
2021/08/14 09:01:15;;;;;;;9.85;4.17;;;;;;;24.73;45.36;100503.62;1755940;81;21402;-83
2021/08/14 09:04:36;;;;;;;7.87;4.28;;;;;;;24.76;45.56;100503.66;1743632;81;21894;-82
2021/08/14 09:07:43;;;;;;;11.40;4.08;;;;;;;24.77;45.55;100496.95;1754390;81;21169;-83
2021/08/14 09:10:48;;;;;;;10.13;4.12;;;;;;;24.80;45.93;100489.43;1752057;81;21244;-82
2021/08/14 09:14:13;;;;;;;8.50;4.50;;;;;;;24.84;44.87;100490.56;1747040;80;21191;-82
2021/08/14 09:17:13;;;;;;;6.12;4.25;;;;;;;24.77;45.94;100496.39;1748288;81;22555;-84
2021/08/14 09:20:21;;;;;;;9.95;4.10;;;;;;;24.73;45.89;100482.08;1744315;81;21249;-83
2021/08/14 09:23:15;;;;;;;14.90;4.40;;;;;;;24.76;44.76;100479.32;1756084;81;21137;-82
2021/08/14 09:26:17;;;;;;;10.10;4.87;;;;;;;24.80;45.73;100492.23;1753759;81;21336;-82
2021/08/14 09:29:23;;;;;;;9.53;3.45;;;;;;;24.85;44.44;100479.68;1741155;82;21814;-84
2021/08/14 09:32:27;;;;;;;11.63;3.75;;;;;;;24.95;42.60;100520.33;1755489;81;21902;-82
2021/08/14 09:35:34;;;;;;;8.68;3.52;;;;;;;24.99;42.28;100483.72;1750266;81;21274;-82
2021/08/14 09:38:57;;;;;;;8.15;3.65;;;;;;;24.95;42.65;100472.77;1749589;81;21342;-82
2021/08/14 09:42:16;;;;;;;6.60;2.83;;;;;;;24.95;42.69;100477.80;1757457;81;21280;-82
2021/08/14 09:45:24;;;;;;;6.92;2.70;;;;;;;25.01;43.13;100473.09;1751414;81;21298;-82
2021/08/14 09:48:31;;;;;;;8.00;3.10;;;;;;;25.12;42.33;100495.02;1747292;81;21335;-83
2021/08/14 09:51:38;;;;;;;5.65;2.83;;;;;;;25.14;42.07;100465.66;1756861;81;21772;-83
2021/08/14 09:54:47;;;;;;;5.97;3.25;;;;;;;25.20;41.81;100469.34;1759393;81;21335;-84
2021/08/14 09:57:53;;;;;;;8.40;3.17;;;;;;;25.29;40.48;100457.08;1754434;81;21382;-82
2021/08/14 10:00:59;;;;;;;4.30;2.75;;;;;;;25.36;41.28;100463.27;1701118;83;21894;-82
2021/08/14 10:04:05;;;;;;;14.38;3.08;;;;;;;25.42;39.79;100464.45;1668501;85;21336;-83
2021/08/14 10:07:10;;;;;;;6.53;2.62;;;;;;;25.43;39.40;100465.29;1686085;85;21194;-83
2021/08/14 10:10:16;;;;;;;10.30;3.20;;;;;;;25.44;39.38;100451.56;1686507;85;21313;-80
2021/08/14 10:13:22;;;;;;;7.62;2.42;;;;;;;25.44;40.19;100462.20;1695454;84;21179;-82
2021/08/14 10:16:28;;;;;;;6.50;3.92;;;;;;;25.43;39.89;100451.29;1721886;83;21870;-83
2021/08/14 10:19:34;;;;;;;9.78;3.72;;;;;;;25.47;40.90;100446.84;1689566;85;21261;-83
2021/08/14 10:22:40;;;;;;;3.83;2.40;;;;;;;25.52;40.23;100443.22;1668837;85;21352;-83
2021/08/14 10:25:48;;;;;;;5.35;2.60;;;;;;;25.55;39.21;100468.73;1689507;85;21229;-82
2021/08/14 10:29:01;;;;;;;7.75;2.70;;;;;;;25.53;40.23;100442.94;1689908;85;21902;-83
2021/08/14 10:32:06;;;;;;;9.33;3.50;;;;;;;25.60;40.31;100470.16;1692040;85;21269;-83
2021/08/14 10:35:34;;;;;;;10.78;3.45;;;;;;;25.66;39.99;100455.05;1691144;85;21316;-83
2021/08/14 10:38:53;;;;;;;10.20;2.75;;;;;;;25.70;40.61;100449.20;1690766;85;21182;-83
2021/08/14 10:42:05;;;;;;;6.20;2.87;;;;;;;25.71;40.07;100439.67;1690752;85;21261;-82
2021/08/14 10:45:23;;;;;;;8.23;2.80;;;;;;;25.74;39.88;100445.30;1690951;85;21722;-82
2021/08/14 10:48:29;;;;;;;5.62;3.80;;;;;;;25.74;39.98;100423.72;1690626;85;21316;-82
2021/08/14 10:51:58;;;;;;;12.13;2.98;;;;;;;25.78;40.03;100431.59;1687878;85;21365;-83
2021/08/14 10:55:08;;;;;;;6.77;3.23;;;;;;;25.79;39.88;100465.52;1708344;84;21205;-83
2021/08/14 10:58:38;;;;;;;9.48;3.00;;;;;;;25.76;39.85;100433.84;1727657;81;21307;-82
2021/08/14 11:01:44;;;;;;;5.78;2.60;;;;;;;25.76;39.77;100445.05;1735258;81;21306;-83
2021/08/14 11:05:03;;;;;;;6.75;2.87;;;;;;;25.86;39.63;100424.06;1734654;81;21890;-83
2021/08/14 11:08:07;;;;;;;7.17;2.90;;;;;;;25.88;38.31;100421.28;1697483;82;21339;-80
2021/08/14 11:11:13;;;;;;;4.62;2.90;;;;;;;25.92;38.91;100438.37;1719162;82;21188;-81
2021/08/14 11:14:20;;;;;;;10.38;3.17;;;;;;;25.94;39.14;100416.53;1662067;83;21182;-82
2021/08/14 11:17:26;;;;;;;8.40;3.75;;;;;;;25.96;39.43;100424.09;1711172;81;21362;-82
2021/08/14 11:20:42;;;;;;;15.10;3.37;;;;;;;25.93;39.08;100429.70;1680820;83;21654;-83
2021/08/14 11:24:05;;;;;;;10.15;3.37;;;;;;;25.90;39.45;100438.66;1714961;83;21211;-82
2021/08/14 11:27:25;;;;;;;6.72;3.55;;;;;;;25.94;39.03;100410.93;1718483;83;21283;-82
2021/08/14 11:30:34;;;;;;;7.17;3.02;;;;;;;26.00;38.30;100423.83;1715716;83;21855;-82
2021/08/14 11:33:40;;;;;;;9.85;3.10;;;;;;;25.98;38.48;100412.06;1716002;83;21182;-82
2021/08/14 11:36:47;;;;;;;6.37;3.02;;;;;;;25.90;39.53;100426.04;1714260;83;21185;-83
2021/08/14 11:39:52;;;;;;;6.37;3.02;;;;;;;25.85;39.11;100415.38;1749772;81;21332;-83
2021/08/14 11:43:18;;;;;;;6.15;3.30;;;;;;;25.85;39.09;100413.42;1760202;81;21800;-82
2021/08/14 11:46:23;;;;;;;5.62;2.85;;;;;;;25.91;38.97;100405.87;1741035;82;21907;-82
2021/08/14 11:49:28;;;;;;;11.30;3.52;;;;;;;25.97;38.84;100411.76;1755448;81;21299;-82
2021/08/14 11:52:34;;;;;;;10.95;4.25;;;;;;;26.03;38.82;100402.27;1747385;81;21799;-83
2021/08/14 11:55:40;;;;;;;8.25;3.70;;;;;;;26.08;39.15;100406.48;1752633;81;21719;-83
2021/08/14 11:58:46;;;;;;;9.45;3.70;;;;;;;26.14;39.09;100413.77;1739112;81;21839;-81
2021/08/14 12:01:59;;;;;;;6.00;3.20;;;;;;;26.15;38.60;100391.62;1753754;81;21299;-81
2021/08/14 12:05:04;;;;;;;9.18;3.37;;;;;;;26.16;39.24;100408.75;1755786;81;21306;-82
2021/08/14 12:08:10;;;;;;;10.08;3.35;;;;;;;26.17;38.58;100389.41;1750689;81;21264;-82
2021/08/14 12:11:18;;;;;;;7.97;3.98;;;;;;;26.19;38.84;100401.17;1758216;81;21280;-82
2021/08/14 12:14:26;;;;;;;11.33;4.00;;;;;;;26.19;38.45;100401.17;1754800;81;21196;-82
2021/08/14 12:17:31;;;;;;;7.83;3.90;;;;;;;26.16;38.28;100389.13;1753985;80;21172;-82
2021/08/14 12:20:39;;;;;;;8.08;3.47;;;;;;;26.16;38.55;100386.33;1752531;82;21218;-81
2021/08/14 12:23:45;;;;;;;7.28;3.98;;;;;;;26.20;38.57;100379.58;1746467;82;21358;-82
2021/08/14 12:26:51;;;;;;;11.60;4.67;;;;;;;26.27;38.76;100391.38;1748835;82;21153;-82
2021/08/14 12:29:58;;;;;;;13.43;4.37;;;;;;;26.31;38.51;100372.88;1749318;82;21181;-83
2021/08/14 12:33:04;;;;;;;7.92;3.92;;;;;;;26.36;38.17;100384.66;1744806;82;21953;-82
2021/08/14 12:36:11;;;;;;;7.12;3.60;;;;;;;26.39;37.69;100390.53;1744740;82;21176;-82
2021/08/14 12:39:18;;;;;;;12.13;4.15;;;;;;;26.34;37.94;100381.28;1750793;82;21165;-83
2021/08/14 12:42:32;;;;;;;7.03;4.15;;;;;;;26.32;37.54;100379.33;1750554;82;21286;-82
2021/08/14 12:45:38;;;;;;;9.23;4.10;;;;;;;26.32;37.62;100378.77;1749048;82;21811;-82
2021/08/14 12:48:43;;;;;;;13.60;4.55;;;;;;;26.34;37.28;100384.08;1725093;82;21588;-83
2021/08/14 12:51:49;;;;;;;12.25;4.75;;;;;;;26.36;37.00;100372.05;1752269;82;21768;-82
2021/08/14 12:55:03;;;;;;;4.90;3.90;;;;;;;26.35;36.89;100364.20;1746894;82;21172;-82
2021/08/14 12:58:12;;;;;;;14.47;4.80;;;;;;;26.35;37.63;100362.80;1750276;82;21220;-82
2021/08/14 13:01:17;;;;;;;13.18;4.33;;;;;;;26.37;38.01;100366.71;1752763;82;21185;-82
2021/08/14 13:04:23;;;;;;;9.68;3.70;;;;;;;26.40;37.16;100367.56;1722045;82;21295;-82
2021/08/14 13:07:29;;;;;;;17.40;3.37;;;;;;;26.43;36.68;100372.63;1748435;82;21168;-83
2021/08/14 13:10:36;;;;;;;6.92;4.28;;;;;;;26.43;36.85;100359.44;1742247;82;21669;-83
2021/08/14 13:13:41;;;;;;;7.33;4.03;;;;;;;26.40;36.84;100367.56;1748843;81;21255;-83
2021/08/14 13:16:47;;;;;;;7.05;4.15;;;;;;;26.38;36.85;100366.98;1749522;82;21350;-83
2021/08/14 13:19:52;;;;;;;11.78;3.90;;;;;;;26.40;37.08;100367.00;1746572;80;21232;-82
2021/08/14 13:22:58;;;;;;;7.67;4.35;;;;;;;26.43;37.44;100363.65;1748809;81;21838;-82
2021/08/14 13:26:03;;;;;;;10.98;4.55;;;;;;;26.48;36.80;100375.42;1746792;82;21263;-82
2021/08/14 13:29:12;;;;;;;11.15;4.05;;;;;;;26.43;37.04;100360.00;1752693;82;21315;-82
2021/08/14 13:32:17;;;;;;;8.55;4.42;;;;;;;26.43;36.82;100362.81;1751684;82;21791;-83
2021/08/14 13:35:23;;;;;;;12.65;5.30;;;;;;;26.42;37.72;100362.50;1751523;82;21160;-80
2021/08/14 13:38:28;;;;;;;10.15;4.75;;;;;;;26.42;37.81;100363.91;1747431;82;21810;-83
2021/08/14 13:41:34;;;;;;;7.60;4.90;;;;;;;26.39;37.92;100362.48;1749308;82;21708;-83
2021/08/14 13:44:39;;;;;;;8.30;4.05;;;;;;;26.36;37.63;100355.22;1748619;81;21240;-81
2021/08/14 13:47:45;;;;;;;5.00;3.25;;;;;;;26.28;37.10;100359.98;1747931;82;21180;-83
2021/08/14 13:50:50;;;;;;;8.48;3.35;;;;;;;26.18;37.01;100357.44;1748111;82;21553;-82
2021/08/14 13:53:57;;;;;;;7.78;3.42;;;;;;;26.18;37.07;100356.05;1749706;82;21679;-82
2021/08/14 13:57:03;;;;;;;6.33;3.67;;;;;;;26.21;37.20;100348.48;1748588;82;21165;-83
2021/08/14 14:00:09;;;;;;;9.50;3.52;;;;;;;26.25;37.32;100358.56;1747214;82;21771;-82
2021/08/14 14:03:14;;;;;;;10.93;3.65;;;;;;;26.28;37.87;100344.55;1748812;82;21776;-82
2021/08/14 14:06:35;;;;;;;7.05;3.75;;;;;;;26.28;37.62;100339.78;1749899;82;21790;-84
2021/08/14 14:09:41;;;;;;;7.67;3.42;;;;;;;26.31;38.37;100341.20;1748299;82;21727;-85
2021/08/14 14:12:48;;;;;;;8.18;3.30;;;;;;;26.34;38.47;100336.41;1750967;81;21181;-84
2021/08/14 14:15:55;;;;;;;8.65;3.33;;;;;;;26.34;38.65;100361.65;1741200;81;21711;-83
2021/08/14 14:19:01;;;;;;;10.58;3.77;;;;;;;26.33;38.49;100339.78;1747319;82;21172;-83
2021/08/14 14:22:07;;;;;;;6.97;3.42;;;;;;;26.29;38.35;100340.06;1760329;81;21807;-81